createdAt,value
2023-03-20T00:00:32.502Z,984.8
2023-03-20T00:19:53.388Z,984.9
2023-03-20T00:39:14.211Z,985.1
2023-03-20T00:58:32.989Z,985.1
2023-03-20T01:17:52.481Z,985.4
2023-03-20T01:37:11.290Z,985.5
2023-03-20T01:56:32.231Z,985.5
2023-03-20T02:15:52.028Z,985.5
2023-03-20T02:35:13.373Z,985.3
2023-03-20T02:54:32.242Z,985.5
2023-03-20T03:13:52.146Z,985.5
2023-03-20T03:33:14.197Z,985.7
2023-03-20T03:52:34.218Z,985.9
2023-03-20T04:11:54.464Z,985.5
2023-03-20T04:31:15.972Z,985.4
2023-03-20T04:50:35.548Z,985.5
2023-03-20T05:09:55.299Z,985.6
2023-03-20T05:29:15.958Z,985.4
2023-03-20T05:48:36.695Z,985.3
2023-03-20T06:07:58.034Z,985.5
2023-03-20T06:27:19.927Z,985.7
2023-03-20T06:46:38.108Z,985.4
2023-03-20T07:05:57.066Z,985.7
2023-03-20T07:25:17.286Z,985.8
2023-03-20T07:44:38.900Z,986.1
2023-03-20T08:03:59.948Z,986.3
2023-03-20T08:23:21.393Z,986.3
2023-03-20T08:42:42.560Z,986.5
2023-03-20T09:02:02.344Z,986.5
2023-03-20T09:21:24.460Z,986.5
2023-03-20T09:40:44.398Z,986.5
2023-03-20T10:00:05.795Z,986.5
2023-03-20T10:19:29.464Z,986.5
2023-03-20T10:38:49.152Z,986.4
2023-03-20T10:58:10.126Z,986.3
2023-03-20T11:17:31.599Z,986.2
2023-03-20T11:37:11.201Z,986.1
2023-03-20T11:56:19.077Z,985.9
2023-03-20T12:15:36.923Z,985.7
2023-03-20T12:34:56.250Z,985.7
2023-03-20T12:54:15.030Z,985.6
2023-03-20T13:13:36.502Z,985.6
2023-03-20T13:32:58.864Z,985.4
2023-03-20T13:52:17.811Z,985.5
2023-03-20T14:11:40.565Z,985.3
2023-03-20T14:11:54.855Z,985.2
2023-03-20T14:13:21.304Z,985.2
2023-03-20T14:13:32.140Z,985.2
2023-03-20T14:32:10.487Z,985.3
2023-03-20T14:51:28.819Z,985.3
2023-03-20T15:10:53.071Z,985.2
2023-03-20T15:30:12.602Z,985
2023-03-20T15:49:33.670Z,985
2023-03-20T16:08:53.207Z,984.9
2023-03-20T16:28:14.627Z,984.8
2023-03-20T16:47:35.379Z,984.8
2023-03-20T17:06:55.012Z,984.7
2023-03-20T17:26:15.652Z,984.7
2023-03-20T17:45:37.438Z,984.7
2023-03-20T18:04:57.847Z,984.8
2023-03-20T18:24:19.438Z,984.9
2023-03-20T18:43:39.121Z,984.9
2023-03-20T19:03:16.488Z,985
2023-03-20T19:22:36.893Z,985
2023-03-20T19:42:56.898Z,984.9
2023-03-20T20:01:52.991Z,984.7
2023-03-20T20:22:26.649Z,984.8
2023-03-20T20:41:14.187Z,984.9
2023-03-20T21:00:55.598Z,984.7
2023-03-20T21:20:01.505Z,984.6
2023-03-20T21:39:23.719Z,984.7
2023-03-20T22:00:31.496Z,984.7
2023-03-20T22:22:06.647Z,984.7
2023-03-20T22:43:05.787Z,984.7
2023-03-20T23:02:18.192Z,984.6
2023-03-20T23:21:37.781Z,984.4
2023-03-20T23:40:58.908Z,984.4
